Time;durP1;ratioP1;P1;durP2;ratioP2;P2;SDS_P1;SDS_P2;PMS_P1;PMS_P2;Temp;Humidity;BMP_temperature;BMP_pressure;BME280_temperature;BME280_humidity;BME280_pressure;Samples;Min_cycle;Max_cycle;Signal;HPM_P1;HPM_P2
2024/01/11 00:01:23;;;;;;;14.70;7.50;;;;;;;;;;5130252;28;20538;-69
2024/01/11 00:03:50;;;;;;;14.70;7.10;;;;;;;;;;5130794;28;20039;-70
2024/01/11 00:06:16;;;;;;;13.40;7.30;;;;;;;;;;5130387;28;20054;-70
2024/01/11 00:08:43;;;;;;;12.95;7.30;;;;;;;;;;5129954;28;20073;-69
2024/01/11 00:11:10;;;;;;;16.65;7.93;;;;;;;;;;5130456;28;20092;-69
2024/01/11 00:13:37;;;;;;;16.00;7.88;;;;;;;;;;5130524;28;20047;-70
2024/01/11 00:16:04;;;;;;;17.98;8.02;;;;;;;;;;5130463;28;20043;-70
2024/01/11 00:18:31;;;;;;;13.85;7.05;;;;;;;;;;5130543;28;20047;-68
2024/01/11 00:20:57;;;;;;;15.98;8.05;;;;;;;;;;5130390;28;20043;-68
2024/01/11 00:23:24;;;;;;;15.07;7.45;;;;;;;;;;5131849;27;20084;-71
2024/01/11 00:25:51;;;;;;;15.10;7.60;;;;;;;;;;5133814;27;20046;-68
2024/01/11 00:28:18;;;;;;;14.52;7.53;;;;;;;;;;5133861;27;20090;-68
2024/01/11 00:30:45;;;;;;;15.23;7.97;;;;;;;;;;5134318;27;20050;-68
2024/01/11 00:33:11;;;;;;;15.40;7.85;;;;;;;;;;5133833;27;20074;-68
2024/01/11 00:35:38;;;;;;;14.07;7.43;;;;;;;;;;5133975;27;20634;-69
2024/01/11 00:38:06;;;;;;;14.88;7.10;;;;;;;;;;5133624;27;20039;-69
2024/01/11 00:40:33;;;;;;;14.75;7.15;;;;;;;;;;5134020;27;20054;-68
2024/01/11 00:42:59;;;;;;;13.45;6.85;;;;;;;;;;5133530;27;20049;-69
2024/01/11 00:45:26;;;;;;;14.32;7.80;;;;;;;;;;5133513;27;20052;-68
2024/01/11 00:47:53;;;;;;;13.32;6.78;;;;;;;;;;5133563;27;20047;-68
2024/01/11 00:50:20;;;;;;;14.52;7.07;;;;;;;;;;5133556;27;20073;-68
2024/01/11 00:52:47;;;;;;;13.65;7.10;;;;;;;;;;5133856;27;20047;-69
2024/01/11 00:55:13;;;;;;;14.35;6.68;;;;;;;;;;5133704;27;20043;-70
2024/01/11 00:57:40;;;;;;;12.15;6.72;;;;;;;;;;5133550;27;20103;-68
2024/01/11 01:00:07;;;;;;;15.10;7.50;;;;;;;;;;5133823;27;20043;-68
2024/01/11 01:02:34;;;;;;;14.27;6.82;;;;;;;;;;5133128;27;20495;-69
2024/01/11 01:05:01;;;;;;;13.82;6.65;;;;;;;;;;5133124;27;20054;-68
2024/01/11 01:07:28;;;;;;;12.43;6.45;;;;;;;;;;5132773;27;20483;-68
2024/01/11 01:09:54;;;;;;;13.90;6.97;;;;;;;;;;5132993;27;20530;-69
2024/01/11 01:12:21;;;;;;;12.00;6.05;;;;;;;;;;5133553;27;20051;-70
2024/01/11 01:14:48;;;;;;;13.07;6.38;;;;;;;;;;5133436;27;20047;-70
2024/01/11 01:17:14;;;;;;;12.48;6.43;;;;;;;;;;5133218;27;20039;-70
2024/01/11 01:19:43;;;;;;;12.45;6.50;;;;;;;;;;5133484;27;20043;-69
2024/01/11 01:22:10;;;;;;;12.20;6.22;;;;;;;;;;5132778;27;20104;-69
2024/01/11 01:24:37;;;;;;;13.23;7.00;;;;;;;;;;5132540;27;20122;-69
2024/01/11 01:27:04;;;;;;;12.10;6.50;;;;;;;;;;5132847;27;20490;-69
2024/01/11 01:29:30;;;;;;;13.13;6.18;;;;;;;;;;5133185;27;20043;-69
2024/01/11 01:31:57;;;;;;;12.80;6.63;;;;;;;;;;5133050;27;20051;-69
2024/01/11 01:34:24;;;;;;;13.15;6.53;;;;;;;;;;5132105;27;20067;-69
2024/01/11 01:36:51;;;;;;;13.70;6.68;;;;;;;;;;5132724;27;20122;-69
2024/01/11 01:39:17;;;;;;;13.82;7.05;;;;;;;;;;5132873;27;20051;-70
2024/01/11 01:41:44;;;;;;;13.77;7.00;;;;;;;;;;5132721;27;20047;-69
2024/01/11 01:44:11;;;;;;;12.05;6.20;;;;;;;;;;5132366;27;20133;-70
2024/01/11 01:46:38;;;;;;;14.10;6.68;;;;;;;;;;5132263;27;20142;-69
2024/01/11 01:49:05;;;;;;;13.65;6.90;;;;;;;;;;5134003;27;20119;-70
2024/01/11 01:51:33;;;;;;;14.35;7.15;;;;;;;;;;5135729;27;20054;-70
2024/01/11 01:54:01;;;;;;;15.88;7.28;;;;;;;;;;5133122;27;20120;-69
2024/01/11 01:56:28;;;;;;;14.00;6.85;;;;;;;;;;5132441;27;20054;-70
2024/01/11 01:58:56;;;;;;;13.75;7.25;;;;;;;;;;5132307;27;20046;-69
2024/01/11 02:01:23;;;;;;;15.77;7.60;;;;;;;;;;5132471;27;20047;-69
2024/01/11 02:03:51;;;;;;;12.82;7.00;;;;;;;;;;5131995;27;20075;-69
2024/01/11 02:06:25;;;;;;;14.48;7.05;;;;;;;;;;5132052;27;20043;-70
2024/01/11 02:08:54;;;;;;;14.18;7.22;;;;;;;;;;5131841;27;20490;-70
2024/01/11 02:11:23;;;;;;;12.70;6.55;;;;;;;;;;5131910;27;20043;-69
2024/01/11 02:13:53;;;;;;;14.73;7.18;;;;;;;;;;5132797;27;20099;-69
2024/01/11 02:16:20;;;;;;;13.80;7.07;;;;;;;;;;5131952;27;20060;-70
2024/01/11 02:18:47;;;;;;;12.35;7.28;;;;;;;;;;5131518;27;20440;-70
2024/01/11 02:21:15;;;;;;;12.90;6.85;;;;;;;;;;5131961;27;20051;-69
2024/01/11 02:24:01;;;;;;;14.07;7.28;;;;;;;;;;5113514;27;20130;-69
2024/01/11 02:26:28;;;;;;;13.80;6.38;;;;;;;;;;5131560;27;20047;-68
2024/01/11 02:28:55;;;;;;;12.80;6.55;;;;;;;;;;5131378;27;20039;-68
2024/01/11 02:31:22;;;;;;;13.35;6.32;;;;;;;;;;5131608;27;20085;-69
2024/01/11 02:33:49;;;;;;;12.50;6.38;;;;;;;;;;5131452;27;20479;-69
2024/01/11 02:36:16;;;;;;;10.93;5.97;;;;;;;;;;5131987;27;20039;-70
2024/01/11 02:38:43;;;;;;;11.32;6.00;;;;;;;;;;5131232;27;20414;-70
2024/01/11 02:41:11;;;;;;;13.48;6.65;;;;;;;;;;5131538;27;20099;-70
2024/01/11 02:43:39;;;;;;;14.18;6.97;;;;;;;;;;5131124;27;20091;-69
2024/01/11 02:46:05;;;;;;;11.48;6.25;;;;;;;;;;5130767;27;20078;-70
2024/01/11 02:48:32;;;;;;;12.27;6.43;;;;;;;;;;5130973;27;20413;-70
2024/01/11 02:50:59;;;;;;;12.02;5.82;;;;;;;;;;5131297;27;20043;-69
2024/01/11 02:53:26;;;;;;;12.88;6.07;;;;;;;;;;5131396;27;20498;-69
2024/01/11 02:55:52;;;;;;;11.02;5.95;;;;;;;;;;5131289;27;20063;-70
2024/01/11 02:58:19;;;;;;;12.20;5.93;;;;;;;;;;5131168;27;20046;-69
2024/01/11 03:00:46;;;;;;;14.55;6.43;;;;;;;;;;5131334;27;20058;-69
2024/01/11 03:03:14;;;;;;;10.65;5.78;;;;;;;;;;5130954;27;20486;-69
2024/01/11 03:05:40;;;;;;;11.02;5.50;;;;;;;;;;5131202;27;20050;-69
2024/01/11 03:08:07;;;;;;;11.80;6.13;;;;;;;;;;5130817;27;20062;-70
2024/01/11 03:10:38;;;;;;;12.90;6.60;;;;;;;;;;5130765;27;20083;-69
2024/01/11 03:13:05;;;;;;;12.20;6.70;;;;;;;;;;5131043;27;20496;-70
2024/01/11 03:15:33;;;;;;;10.30;5.72;;;;;;;;;;5112926;27;20061;-70
2024/01/11 03:17:59;;;;;;;11.23;6.15;;;;;;;;;;5130759;27;20498;-69
2024/01/11 03:20:26;;;;;;;11.43;5.68;;;;;;;;;;5130990;27;20043;-70
2024/01/11 03:22:53;;;;;;;10.38;5.85;;;;;;;;;;5130812;27;20072;-70
2024/01/11 03:25:20;;;;;;;10.02;5.78;;;;;;;;;;5130784;27;20110;-70
2024/01/11 03:27:46;;;;;;;13.57;6.40;;;;;;;;;;5130883;28;20043;-69
2024/01/11 03:30:13;;;;;;;11.32;6.40;;;;;;;;;;5131083;28;20073;-70
2024/01/11 03:32:40;;;;;;;11.10;5.53;;;;;;;;;;5130735;28;20086;-70
2024/01/11 03:35:08;;;;;;;12.77;6.47;;;;;;;;;;5130910;28;20502;-71
2024/01/11 03:37:35;;;;;;;14.70;6.50;;;;;;;;;;5130849;28;20051;-69
2024/01/11 03:40:03;;;;;;;12.63;6.60;;;;;;;;;;5130492;28;20456;-68
2024/01/11 03:42:30;;;;;;;12.15;6.32;;;;;;;;;;5130549;28;20460;-69
2024/01/11 03:44:56;;;;;;;12.27;6.00;;;;;;;;;;5130349;28;20051;-71
2024/01/11 03:47:23;;;;;;;12.52;6.18;;;;;;;;;;5130681;28;20051;-70
2024/01/11 03:49:50;;;;;;;12.27;6.20;;;;;;;;;;5130588;28;20452;-70
2024/01/11 03:52:17;;;;;;;9.80;5.60;;;;;;;;;;5130454;28;20047;-70
2024/01/11 03:54:43;;;;;;;11.43;5.88;;;;;;;;;;5130699;28;20066;-70
2024/01/11 03:57:10;;;;;;;10.80;5.97;;;;;;;;;;5130648;27;20513;-70
2024/01/11 03:59:37;;;;;;;12.20;5.90;;;;;;;;;;5134478;27;20043;-70
2024/01/11 04:02:04;;;;;;;9.85;5.55;;;;;;;;;;5134572;27;20135;-70
2024/01/11 04:04:30;;;;;;;11.63;5.97;;;;;;;;;;5134278;27;20578;-69
2024/01/11 04:06:57;;;;;;;9.40;5.32;;;;;;;;;;5134409;27;20047;-69
2024/01/11 04:09:24;;;;;;;14.13;6.53;;;;;;;;;;5116008;27;20092;-69
2024/01/11 04:11:51;;;;;;;11.75;6.43;;;;;;;;;;5134893;27;20048;-69
2024/01/11 04:14:18;;;;;;;13.73;6.68;;;;;;;;;;5134497;27;20042;-69
2024/01/11 04:16:45;;;;;;;12.63;6.32;;;;;;;;;;5134292;27;20089;-69
2024/01/11 04:19:11;;;;;;;14.30;6.68;;;;;;;;;;5134411;27;20042;-69
2024/01/11 04:21:38;;;;;;;12.18;6.55;;;;;;;;;;5134117;27;20043;-69
2024/01/11 04:24:06;;;;;;;14.77;6.78;;;;;;;;;;5134012;27;20108;-69
2024/01/11 04:26:33;;;;;;;14.15;6.53;;;;;;;;;;5134265;27;20039;-69
2024/01/11 04:29:00;;;;;;;10.68;5.53;;;;;;;;;;5133919;27;20085;-69
2024/01/11 04:31:27;;;;;;;11.52;6.15;;;;;;;;;;5133982;27;20047;-69
2024/01/11 04:33:54;;;;;;;11.80;5.80;;;;;;;;;;5133947;27;20047;-70
2024/01/11 04:36:21;;;;;;;12.10;5.70;;;;;;;;;;5134015;27;20051;-69
2024/01/11 04:38:47;;;;;;;10.23;5.78;;;;;;;;;;5134049;27;20051;-69
2024/01/11 04:41:15;;;;;;;10.93;6.05;;;;;;;;;;5134226;27;20044;-69
2024/01/11 04:43:43;;;;;;;12.50;6.15;;;;;;;;;;5137547;27;20054;-70
2024/01/11 04:46:21;;;;;;;10.85;5.72;;;;;;;;;;5134261;27;20057;-70
2024/01/11 04:48:49;;;;;;;12.38;6.30;;;;;;;;;;5134005;27;20100;-70
2024/01/11 04:51:17;;;;;;;10.15;5.43;;;;;;;;;;5134164;27;20050;-70
2024/01/11 04:53:45;;;;;;;12.23;6.15;;;;;;;;;;5133760;27;20039;-69
2024/01/11 04:56:14;;;;;;;10.35;5.53;;;;;;;;;;5133726;27;20043;-70
2024/01/11 04:58:42;;;;;;;12.52;6.13;;;;;;;;;;5133371;27;20605;-69
2024/01/11 05:01:13;;;;;;;10.45;5.53;;;;;;;;;;5115277;27;20040;-70
2024/01/11 05:03:41;;;;;;;10.48;5.60;;;;;;;;;;5114984;27;20451;-69
2024/01/11 05:06:08;;;;;;;12.50;6.03;;;;;;;;;;5133611;27;20039;-69
2024/01/11 05:08:35;;;;;;;9.40;5.00;;;;;;;;;;5132805;27;20142;-69
2024/01/11 05:11:02;;;;;;;12.85;6.30;;;;;;;;;;5132298;27;20078;-69
2024/01/11 05:13:29;;;;;;;10.50;5.47;;;;;;;;;;5133481;27;20082;-69
2024/01/11 05:15:55;;;;;;;9.98;5.22;;;;;;;;;;5133475;27;20074;-69
2024/01/11 05:18:22;;;;;;;10.18;5.38;;;;;;;;;;5132949;27;20039;-69
2024/01/11 05:20:49;;;;;;;10.15;5.25;;;;;;;;;;5133140;27;20051;-69
2024/01/11 05:23:15;;;;;;;11.35;5.57;;;;;;;;;;5132883;27;20047;-69
2024/01/11 05:25:42;;;;;;;10.70;5.65;;;;;;;;;;5132976;27;20051;-69
2024/01/11 05:28:09;;;;;;;10.05;5.47;;;;;;;;;;5132694;27;20045;-69
2024/01/11 05:30:35;;;;;;;9.32;5.30;;;;;;;;;;5133181;27;20047;-70
2024/01/11 05:33:04;;;;;;;8.85;5.00;;;;;;;;;;5133134;27;20047;-69
2024/01/11 05:35:31;;;;;;;9.57;4.50;;;;;;;;;;5132995;27;20043;-69
2024/01/11 05:37:57;;;;;;;9.15;4.85;;;;;;;;;;5132679;27;20049;-69
2024/01/11 05:40:24;;;;;;;9.00;5.05;;;;;;;;;;5132420;27;20092;-69
2024/01/11 05:42:51;;;;;;;10.23;5.30;;;;;;;;;;5132378;27;20406;-69
2024/01/11 05:45:18;;;;;;;9.32;5.10;;;;;;;;;;5132384;27;20043;-69
2024/01/11 05:47:52;;;;;;;8.57;4.97;;;;;;;;;;5132823;27;20057;-69
2024/01/11 05:50:19;;;;;;;9.65;4.63;;;;;;;;;;5132697;27;20039;-69
2024/01/11 05:52:45;;;;;;;9.25;4.90;;;;;;;;;;5133034;27;20047;-69
2024/01/11 05:55:12;;;;;;;10.10;5.32;;;;;;;;;;5132261;27;20049;-69
2024/01/11 05:57:39;;;;;;;10.00;4.80;;;;;;;;;;5132453;27;20052;-69
2024/01/11 06:00:06;;;;;;;9.35;4.88;;;;;;;;;;5132231;27;20047;-69
2024/01/11 06:02:33;;;;;;;9.80;4.85;;;;;;;;;;5132415;27;20044;-69
2024/01/11 06:04:59;;;;;;;9.68;4.80;;;;;;;;;;5132371;27;20047;-69
2024/01/11 06:07:26;;;;;;;10.20;5.40;;;;;;;;;;5132001;27;20047;-69
2024/01/11 06:09:53;;;;;;;10.23;5.45;;;;;;;;;;5131679;27;20082;-69
2024/01/11 06:12:19;;;;;;;11.00;5.50;;;;;;;;;;5114155;27;20043;-69
2024/01/11 06:14:47;;;;;;;10.10;5.28;;;;;;;;;;5132067;27;20042;-69
2024/01/11 06:17:13;;;;;;;10.70;5.65;;;;;;;;;;5132018;27;20126;-69
2024/01/11 06:19:40;;;;;;;9.48;5.15;;;;;;;;;;5131968;27;20045;-69
2024/01/11 06:22:07;;;;;;;11.07;5.38;;;;;;;;;;5131536;27;20048;-69
2024/01/11 06:24:34;;;;;;;9.73;5.03;;;;;;;;;;5131659;27;20044;-69
2024/01/11 06:27:00;;;;;;;10.20;5.18;;;;;;;;;;5132147;27;20070;-69
2024/01/11 06:29:27;;;;;;;9.90;4.75;;;;;;;;;;5131578;27;20589;-69
2024/01/11 06:31:54;;;;;;;8.20;4.60;;;;;;;;;;5131658;27;20039;-69
2024/01/11 06:34:21;;;;;;;7.68;4.45;;;;;;;;;;5131588;27;20560;-69
2024/01/11 06:36:47;;;;;;;8.25;4.68;;;;;;;;;;5131875;27;20043;-69
2024/01/11 06:39:14;;;;;;;8.55;4.53;;;;;;;;;;5131185;27;20051;-69
2024/01/11 06:41:41;;;;;;;9.02;4.72;;;;;;;;;;5131621;27;20120;-69
2024/01/11 06:44:08;;;;;;;8.65;4.93;;;;;;;;;;5131094;27;20459;-68
2024/01/11 06:46:36;;;;;;;10.50;5.38;;;;;;;;;;5131278;27;20054;-69
2024/01/11 06:49:03;;;;;;;8.85;4.75;;;;;;;;;;5131285;27;20089;-69
2024/01/11 06:51:31;;;;;;;9.32;4.72;;;;;;;;;;5131279;27;20043;-68
2024/01/11 06:54:00;;;;;;;9.65;5.15;;;;;;;;;;5131422;27;20051;-69
2024/01/11 06:56:27;;;;;;;9.23;4.85;;;;;;;;;;5131563;27;20043;-69
2024/01/11 06:58:54;;;;;;;10.88;5.38;;;;;;;;;;5130778;27;20388;-68
2024/01/11 07:01:21;;;;;;;9.48;4.75;;;;;;;;;;5131105;27;20043;-69
2024/01/11 07:03:49;;;;;;;10.25;4.90;;;;;;;;;;5131302;27;20045;-68
2024/01/11 07:06:16;;;;;;;9.10;5.13;;;;;;;;;;5131393;27;20125;-71
2024/01/11 07:08:43;;;;;;;9.02;4.85;;;;;;;;;;5131252;27;20503;-69
2024/01/11 07:11:11;;;;;;;11.25;5.07;;;;;;;;;;5131228;27;20049;-69
2024/01/11 07:13:38;;;;;;;10.77;4.72;;;;;;;;;;5130937;27;20072;-69
2024/01/11 07:16:05;;;;;;;9.50;4.90;;;;;;;;;;5130944;27;20134;-69
2024/01/11 07:18:35;;;;;;;7.88;4.65;;;;;;;;;;5130820;27;20134;-69
2024/01/11 07:21:05;;;;;;;10.02;5.13;;;;;;;;;;5130907;27;20046;-69
2024/01/11 07:23:32;;;;;;;9.13;4.73;;;;;;;;;;5130804;27;20664;-69
2024/01/11 07:25:58;;;;;;;8.57;4.68;;;;;;;;;;5112766;27;20043;-69
2024/01/11 07:28:25;;;;;;;9.02;5.15;;;;;;;;;;5130945;27;20039;-69
2024/01/11 07:30:53;;;;;;;8.82;4.78;;;;;;;;;;5131164;28;20046;-69
2024/01/11 07:33:20;;;;;;;9.82;5.40;;;;;;;;;;5130347;27;20050;-69
2024/01/11 07:35:48;;;;;;;8.27;5.10;;;;;;;;;;5131114;28;20051;-69
2024/01/11 07:38:14;;;;;;;9.77;4.88;;;;;;;;;;5133616;28;20112;-70
2024/01/11 07:40:41;;;;;;;10.63;5.03;;;;;;;;;;5133716;28;20045;-69
2024/01/11 07:43:09;;;;;;;9.18;4.55;;;;;;;;;;5131488;28;20039;-69
2024/01/11 07:45:36;;;;;;;9.70;5.03;;;;;;;;;;5130499;28;20051;-70
2024/01/11 07:48:03;;;;;;;7.85;4.35;;;;;;;;;;5130818;28;20040;-70
2024/01/11 07:50:30;;;;;;;8.80;4.80;;;;;;;;;;5112564;28;20047;-69
2024/01/11 07:52:57;;;;;;;9.48;4.70;;;;;;;;;;5130773;28;20047;-69
2024/01/11 07:55:24;;;;;;;8.68;4.40;;;;;;;;;;5130519;28;20088;-69
2024/01/11 07:57:50;;;;;;;10.23;5.03;;;;;;;;;;5130448;28;20069;-70
2024/01/11 08:00:17;;;;;;;8.80;4.55;;;;;;;;;;5130331;28;20039;-70
2024/01/11 08:02:44;;;;;;;8.07;4.28;;;;;;;;;;5130510;28;20061;-69
2024/01/11 08:05:11;;;;;;;7.00;4.18;;;;;;;;;;5130364;28;20047;-69
2024/01/11 08:07:38;;;;;;;7.80;3.90;;;;;;;;;;5130328;28;20062;-69
2024/01/11 08:10:06;;;;;;;8.73;4.13;;;;;;;;;;5130187;28;20051;-69
2024/01/11 08:12:33;;;;;;;7.63;4.22;;;;;;;;;;5130357;28;20054;-69
2024/01/11 08:14:59;;;;;;;7.30;3.88;;;;;;;;;;5130457;28;20043;-69
2024/01/11 08:17:26;;;;;;;7.00;4.00;;;;;;;;;;5130338;28;20039;-69
2024/01/11 08:19:55;;;;;;;6.20;3.88;;;;;;;;;;5130044;28;20069;-69
2024/01/11 08:22:22;;;;;;;7.47;4.10;;;;;;;;;;5130383;28;20051;-69
2024/01/11 08:24:53;;;;;;;6.78;4.10;;;;;;;;;;5109777;28;20101;-69
2024/01/11 08:27:20;;;;;;;6.03;3.42;;;;;;;;;;5110023;28;20089;-69
2024/01/11 08:29:46;;;;;;;7.25;3.80;;;;;;;;;;5109377;28;20044;-68
2024/01/11 08:32:13;;;;;;;8.38;3.72;;;;;;;;;;5109846;28;20077;-69
2024/01/11 08:34:59;;;;;;;7.70;3.83;;;;;;;;;;5109615;28;20077;-69
2024/01/11 08:37:26;;;;;;;7.28;4.32;;;;;;;;;;5091654;28;20514;-68
2024/01/11 08:39:53;;;;;;;7.20;3.95;;;;;;;;;;5109401;28;20120;-69
2024/01/11 08:42:19;;;;;;;6.72;4.05;;;;;;;;;;5109614;28;20090;-69
2024/01/11 08:44:47;;;;;;;8.90;4.18;;;;;;;;;;5110297;28;20460;-69
2024/01/11 08:47:14;;;;;;;7.53;3.78;;;;;;;;;;5113441;28;20092;-69
2024/01/11 08:49:42;;;;;;;7.75;3.90;;;;;;;;;;5112991;28;20054;-69
2024/01/11 08:52:08;;;;;;;7.80;4.05;;;;;;;;;;5112929;28;21119;-69
2024/01/11 08:54:36;;;;;;;6.15;3.60;;;;;;;;;;5112822;28;20138;-70
2024/01/11 08:57:03;;;;;;;8.80;4.32;;;;;;;;;;5113098;28;20044;-69
2024/01/11 08:59:30;;;;;;;6.63;3.63;;;;;;;;;;5113436;28;20040;-69
2024/01/11 09:01:58;;;;;;;8.15;4.10;;;;;;;;;;5112676;28;20108;-69
2024/01/11 09:04:40;;;;;;;6.20;3.42;;;;;;;;;;5113057;28;20116;-69
2024/01/11 09:07:07;;;;;;;7.25;3.90;;;;;;;;;;5112940;28;20062;-69
2024/01/11 09:09:34;;;;;;;6.82;3.47;;;;;;;;;;5112524;28;20411;-69
2024/01/11 09:12:13;;;;;;;7.45;3.80;;;;;;;;;;5112582;28;20050;-69
2024/01/11 09:14:40;;;;;;;6.32;3.60;;;;;;;;;;5112791;28;20075;-69
2024/01/11 09:17:08;;;;;;;7.97;3.70;;;;;;;;;;5112435;28;20675;-69
2024/01/11 09:19:35;;;;;;;7.65;4.30;;;;;;;;;;5112498;28;20564;-69
2024/01/11 09:22:02;;;;;;;7.55;4.20;;;;;;;;;;5112902;28;20035;-69
2024/01/11 09:24:29;;;;;;;8.57;3.92;;;;;;;;;;5129367;27;20050;-69
2024/01/11 09:27:03;;;;;;;7.32;3.75;;;;;;;;;;5133128;27;20062;-70
2024/01/11 09:29:30;;;;;;;9.23;4.85;;;;;;;;;;5132820;27;20046;-69
2024/01/11 09:31:59;;;;;;;6.78;3.80;;;;;;;;;;5132372;27;20047;-69
2024/01/11 09:34:26;;;;;;;6.97;3.50;;;;;;;;;;5133045;27;20050;-69
2024/01/11 09:36:53;;;;;;;9.50;4.15;;;;;;;;;;5132725;27;20495;-69
2024/01/11 09:39:20;;;;;;;6.28;3.53;;;;;;;;;;5132818;27;20043;-69
2024/01/11 09:42:03;;;;;;;6.63;3.55;;;;;;;;;;5132788;27;20122;-69
2024/01/11 09:44:30;;;;;;;6.78;3.50;;;;;;;;;;5132906;27;20063;-69
2024/01/11 09:46:59;;;;;;;8.20;4.22;;;;;;;;;;5132720;27;20049;-69
2024/01/11 09:49:27;;;;;;;8.93;4.28;;;;;;;;;;5132736;27;20130;-70
2024/01/11 09:51:56;;;;;;;6.60;3.50;;;;;;;;;;5132221;27;20126;-70
2024/01/11 09:54:24;;;;;;;6.63;3.80;;;;;;;;;;5132427;27;20069;-69
2024/01/11 09:56:54;;;;;;;9.13;4.50;;;;;;;;;;5131857;27;20050;-69
2024/01/11 09:59:24;;;;;;;7.65;4.65;;;;;;;;;;5132471;27;20047;-69
2024/01/11 10:01:51;;;;;;;7.20;4.32;;;;;;;;;;5132458;27;20051;-69
2024/01/11 10:04:18;;;;;;;10.57;4.70;;;;;;;;;;5132403;27;20082;-69
2024/01/11 10:06:46;;;;;;;7.03;3.70;;;;;;;;;;5132136;27;20047;-69
2024/01/11 10:09:16;;;;;;;6.68;3.95;;;;;;;;;;5132079;27;20054;-69
2024/01/11 10:11:45;;;;;;;8.30;4.15;;;;;;;;;;5131899;27;20070;-70
2024/01/11 10:14:15;;;;;;;6.75;3.90;;;;;;;;;;5131996;27;20482;-70
2024/01/11 10:16:43;;;;;;;6.33;3.60;;;;;;;;;;5132236;27;20100;-69
2024/01/11 10:19:13;;;;;;;8.00;4.10;;;;;;;;;;5132137;27;20047;-69
2024/01/11 10:21:40;;;;;;;9.48;4.32;;;;;;;;;;5131634;27;20047;-69
2024/01/11 10:24:07;;;;;;;10.30;5.32;;;;;;;;;;5131500;27;20117;-70
2024/01/11 10:26:35;;;;;;;9.27;5.47;;;;;;;;;;5131559;27;20430;-70
2024/01/11 10:29:03;;;;;;;9.73;5.18;;;;;;;;;;5131765;27;20068;-70
2024/01/11 10:31:30;;;;;;;9.65;5.05;;;;;;;;;;5131557;27;20068;-69
2024/01/11 10:33:57;;;;;;;9.20;5.03;;;;;;;;;;5131571;27;20498;-70
2024/01/11 10:36:25;;;;;;;13.05;6.70;;;;;;;;;;5131722;27;20054;-69
2024/01/11 10:38:53;;;;;;;11.40;6.10;;;;;;;;;;5131871;27;20643;-70
2024/01/11 10:41:20;;;;;;;9.68;5.50;;;;;;;;;;5131616;27;20070;-69
2024/01/11 10:43:48;;;;;;;13.43;5.95;;;;;;;;;;5131763;27;20043;-69
2024/01/11 10:46:19;;;;;;;6.82;3.90;;;;;;;;;;5131248;27;20498;-69
2024/01/11 10:48:49;;;;;;;8.50;4.65;;;;;;;;;;5131131;27;20539;-69
2024/01/11 10:51:21;;;;;;;6.75;3.70;;;;;;;;;;5131305;27;20069;-70
2024/01/11 10:53:51;;;;;;;8.15;4.40;;;;;;;;;;5131293;27;20043;-70
2024/01/11 10:56:20;;;;;;;10.70;5.97;;;;;;;;;;5131577;27;20047;-69
2024/01/11 10:58:48;;;;;;;7.63;4.20;;;;;;;;;;5131087;27;20444;-70
2024/01/11 11:01:16;;;;;;;9.95;5.05;;;;;;;;;;5113078;27;20043;-70
2024/01/11 11:03:44;;;;;;;10.68;6.20;;;;;;;;;;5131456;27;20130;-70
2024/01/11 11:06:12;;;;;;;10.45;5.15;;;;;;;;;;5130991;27;20526;-70
2024/01/11 11:08:40;;;;;;;8.70;5.05;;;;;;;;;;5129904;27;20047;-70
2024/01/11 11:11:08;;;;;;;7.95;4.63;;;;;;;;;;5130727;27;20134;-69
2024/01/11 11:13:35;;;;;;;11.50;6.50;;;;;;;;;;5131202;27;20071;-69
2024/01/11 11:16:05;;;;;;;10.32;6.15;;;;;;;;;;5130913;27;20045;-69
2024/01/11 11:18:34;;;;;;;12.55;6.10;;;;;;;;;;5131160;27;20071;-69
2024/01/11 11:21:09;;;;;;;10.75;6.22;;;;;;;;;;5130937;27;20043;-69
2024/01/11 11:23:36;;;;;;;10.25;6.10;;;;;;;;;;5130887;27;20054;-69
2024/01/11 11:26:06;;;;;;;10.60;6.20;;;;;;;;;;5130438;27;20047;-69
2024/01/11 11:28:34;;;;;;;8.68;5.53;;;;;;;;;;5130598;27;20070;-69
2024/01/11 11:31:02;;;;;;;9.18;5.60;;;;;;;;;;5130591;27;20436;-69
2024/01/11 11:33:30;;;;;;;11.38;6.65;;;;;;;;;;5130419;28;20134;-69
2024/01/11 11:35:58;;;;;;;8.68;5.28;;;;;;;;;;5130942;28;20071;-69
2024/01/11 11:38:29;;;;;;;9.23;5.25;;;;;;;;;;5130786;28;20054;-69
2024/01/11 11:40:58;;;;;;;8.25;4.85;;;;;;;;;;5130448;28;20051;-69
2024/01/11 11:43:28;;;;;;;7.88;4.40;;;;;;;;;;5130205;28;20085;-71
2024/01/11 11:45:56;;;;;;;8.48;4.47;;;;;;;;;;5130254;28;20460;-69
2024/01/11 11:48:31;;;;;;;7.38;3.90;;;;;;;;;;5130484;28;20047;-69
2024/01/11 11:51:11;;;;;;;7.05;4.18;;;;;;;;;;5130457;28;20047;-71
2024/01/11 11:53:43;;;;;;;7.05;4.13;;;;;;;;;;5130481;28;20129;-70
2024/01/11 11:56:10;;;;;;;7.63;4.45;;;;;;;;;;5130936;28;20043;-70
2024/01/11 11:58:39;;;;;;;10.32;5.38;;;;;;;;;;5130314;28;20134;-69
2024/01/11 12:01:05;;;;;;;9.85;4.93;;;;;;;;;;5130754;28;20100;-69
2024/01/11 12:03:37;;;;;;;9.52;5.22;;;;;;;;;;5130310;28;20407;-70
2024/01/11 12:06:06;;;;;;;7.80;3.97;;;;;;;;;;5130017;28;20047;-69
2024/01/11 12:08:35;;;;;;;8.13;4.80;;;;;;;;;;5130177;28;20054;-69
2024/01/11 12:11:03;;;;;;;9.73;5.50;;;;;;;;;;5130210;28;20118;-70
2024/01/11 12:13:32;;;;;;;9.85;5.05;;;;;;;;;;5129995;28;20042;-69
2024/01/11 12:16:00;;;;;;;9.75;5.72;;;;;;;;;;5130769;28;20040;-69
2024/01/11 12:18:26;;;;;;;10.60;6.20;;;;;;;;;;5130947;27;20103;-69
2024/01/11 12:20:53;;;;;;;8.65;5.05;;;;;;;;;;5116300;27;20119;-69
2024/01/11 12:23:20;;;;;;;11.82;6.00;;;;;;;;;;5134032;27;20039;-69
2024/01/11 12:25:47;;;;;;;13.50;6.25;;;;;;;;;;5133870;27;20047;-69
2024/01/11 12:28:14;;;;;;;11.85;5.30;;;;;;;;;;5133996;27;20597;-69
2024/01/11 12:30:42;;;;;;;13.10;6.75;;;;;;;;;;5134099;27;20047;-69
2024/01/11 12:33:09;;;;;;;9.85;6.03;;;;;;;;;;5133932;27;20049;-69
2024/01/11 12:35:37;;;;;;;9.13;5.05;;;;;;;;;;5134197;27;20051;-69
2024/01/11 12:38:06;;;;;;;10.25;5.93;;;;;;;;;;5133990;27;20470;-69
2024/01/11 12:40:37;;;;;;;12.07;6.70;;;;;;;;;;5134016;27;20052;-69
2024/01/11 12:43:04;;;;;;;8.95;5.18;;;;;;;;;;5133610;27;20074;-69
2024/01/11 12:45:32;;;;;;;7.97;4.60;;;;;;;;;;5133811;27;20053;-69
2024/01/11 12:48:00;;;;;;;6.13;3.67;;;;;;;;;;5133489;27;20491;-69
2024/01/11 12:50:27;;;;;;;6.80;3.53;;;;;;;;;;5133579;27;20498;-69
2024/01/11 12:53:20;;;;;;;5.82;3.50;;;;;;;;;;5133509;27;20046;-70
2024/01/11 12:55:48;;;;;;;7.57;4.25;;;;;;;;;;5133781;27;20092;-70
2024/01/11 12:58:25;;;;;;;9.63;4.70;;;;;;;;;;5133474;27;20131;-70
2024/01/11 13:00:53;;;;;;;9.77;6.13;;;;;;;;;;5133273;27;20567;-70
2024/01/11 13:03:20;;;;;;;11.00;5.88;;;;;;;;;;5133131;27;20111;-70
2024/01/11 13:05:48;;;;;;;14.10;6.43;;;;;;;;;;5133590;27;20049;-70
2024/01/11 13:08:15;;;;;;;11.43;5.43;;;;;;;;;;5133017;27;20055;-71
2024/01/11 13:10:47;;;;;;;10.90;5.40;;;;;;;;;;5133090;27;20634;-71
2024/01/11 13:13:15;;;;;;;7.15;4.32;;;;;;;;;;5132979;27;20055;-68
2024/01/11 13:15:42;;;;;;;7.30;4.50;;;;;;;;;;5133441;27;20043;-70
2024/01/11 13:18:09;;;;;;;6.65;4.22;;;;;;;;;;5133377;27;20115;-69
2024/01/11 13:20:36;;;;;;;7.43;4.45;;;;;;;;;;5132925;27;20053;-69
2024/01/11 13:23:16;;;;;;;5.80;3.45;;;;;;;;;;5132800;27;20430;-69
2024/01/11 13:25:44;;;;;;;6.45;3.65;;;;;;;;;;5132828;27;20068;-70
2024/01/11 13:28:11;;;;;;;7.32;4.53;;;;;;;;;;5133129;27;20142;-69
2024/01/11 13:30:42;;;;;;;8.68;5.35;;;;;;;;;;5132227;27;20075;-69
2024/01/11 13:33:10;;;;;;;;;;;;;;;;;;5133518;27;20043;-69
2024/01/11 13:35:38;;;;;;;7.05;4.22;;;;;;;;;;5114585;27;20443;-69
2024/01/11 13:38:05;;;;;;;10.48;5.18;;;;;;;;;;5132727;27;20444;-69
2024/01/11 13:40:32;;;;;;;7.00;4.32;;;;;;;;;;5132824;27;20305;-69
2024/01/11 13:42:59;;;;;;;9.73;5.00;;;;;;;;;;5132580;27;20135;-69
2024/01/11 13:45:26;;;;;;;6.32;3.88;;;;;;;;;;5132433;27;20712;-69
2024/01/11 13:47:56;;;;;;;7.03;3.65;;;;;;;;;;5132385;27;20039;-69
2024/01/11 13:50:24;;;;;;;;;;;;;;;;;;5132998;27;20047;-69
2024/01/11 13:52:52;;;;;;;7.18;4.43;;;;;;;;;;5132431;27;19995;-69
2024/01/11 13:55:21;;;;;;;8.85;4.40;;;;;;;;;;5132374;27;20046;-69
2024/01/11 13:57:49;;;;;;;8.95;4.75;;;;;;;;;;5114183;27;20080;-69
2024/01/11 14:00:18;;;;;;;7.25;4.03;;;;;;;;;;5132484;27;20051;-69
2024/01/11 14:02:46;;;;;;;9.18;4.53;;;;;;;;;;5131742;27;20051;-69
2024/01/11 14:05:14;;;;;;;8.85;4.40;;;;;;;;;;5132190;27;20039;-69
2024/01/11 14:07:43;;;;;;;8.95;4.80;;;;;;;;;;5132083;27;20100;-69
2024/01/11 14:10:11;;;;;;;7.68;4.20;;;;;;;;;;5132280;27;20133;-69
2024/01/11 14:12:38;;;;;;;8.25;4.45;;;;;;;;;;5131678;27;20104;-69
2024/01/11 14:15:11;;;;;;;8.18;3.97;;;;;;;;;;5131974;27;20049;-69
2024/01/11 14:17:39;;;;;;;9.43;5.00;;;;;;;;;;5132164;27;20047;-69
2024/01/11 14:20:11;;;;;;;9.02;4.20;;;;;;;;;;5131807;27;20049;-69
2024/01/11 14:22:40;;;;;;;8.00;4.38;;;;;;;;;;5131849;27;20054;-69
2024/01/11 14:25:09;;;;;;;7.15;3.80;;;;;;;;;;5131537;27;20051;-69
2024/01/11 14:27:35;;;;;;;7.38;4.30;;;;;;;;;;5131562;27;20490;-70
2024/01/11 14:30:05;;;;;;;7.95;4.70;;;;;;;;;;5131708;27;20537;-70
2024/01/11 14:32:32;;;;;;;7.88;4.50;;;;;;;;;;5131766;27;20071;-70
2024/01/11 14:35:04;;;;;;;8.50;4.60;;;;;;;;;;5131523;27;20415;-70
2024/01/11 14:37:37;;;;;;;8.05;4.03;;;;;;;;;;5131724;27;20043;-70
2024/01/11 14:40:11;;;;;;;7.10;3.88;;;;;;;;;;5113258;27;20050;-70
2024/01/11 14:42:38;;;;;;;7.78;4.65;;;;;;;;;;5131170;27;20404;-70